CPS4 weather

Lucan Airport
Lucan, Ontario, Canada

Public forecast

Using degrees Celsius for public forecast. Weather courtesy of forecast.io.

METAR (pilot weather report)

Closest report is London Airport, 13.7 nm (25.3 km) SE. Retrieved 2019/05/24 01:00 UTC (18 minutes ago):

CYXU 240100Z 31012G20KT 15SM BKN054 18/09 A2995 RMK SC5 PRESRR SLP143 DENSITY ALT 1500FT

TAF (pilot weather forecast)

Forecast is more than 12 hours old.

Closest forecast is London Airport, 13.7 nm (25.3 km) SE. Retrieved 2019/05/23 00:39 UTC (1 day ago):

TAF CYXU 232338Z 2400/2424 28015G25KT P6SM FEW040 BECMG 2400/2402 31012G22KT BECMG 2403/2405 32010KT FM240900 33010KT P6SM FEW005 PROB30 2409/2413 21/2SM BR BKN005 FM241800 33007KT P6SM SCT025 BKN120 BECMG 2421/2423 VRB03KT RMK NXT FCST BY 240600Z